Time;durP1;ratioP1;P1;durP2;ratioP2;P2;SDS_P1;SDS_P2;PMS_P1;PMS_P2;Temp;Humidity;BMP_temperature;BMP_pressure;BME280_temperature;BME280_humidity;BME280_pressure;Samples;Min_cycle;Max_cycle;Signal;HPM_P1;HPM_P2
2023/08/29 00:01:59;;;;;;;56.55;53.25;;;13.00;99.90;;;;;;4908533;29;20044;-85
2023/08/29 00:04:25;;;;;;;67.18;62.97;;;13.00;99.90;;;;;;4908953;29;20044;-86
2023/08/29 00:06:50;;;;;;;5.93;5.57;;;13.00;99.90;;;;;;4893635;29;20071;-84
2023/08/29 00:09:16;;;;;;;27.10;25.73;;;12.90;99.90;;;;;;4909908;29;20064;-85
2023/08/29 00:11:42;;;;;;;172.85;162.80;;;13.00;99.90;;;;;;4923121;29;20121;-86
2023/08/29 00:14:07;;;;;;;174.75;164.43;;;12.90;99.90;;;;;;4907462;29;20068;-83
2023/08/29 00:16:33;;;;;;;24.55;23.13;;;12.90;99.90;;;;;;4924975;29;20048;-84
2023/08/29 00:18:59;;;;;;;170.25;160.25;;;12.80;99.90;;;;;;4933743;29;20055;-85
2023/08/29 00:21:25;;;;;;;343.20;323.85;;;12.80;99.90;;;;;;4913720;29;20059;-85
2023/08/29 00:23:51;;;;;;;112.22;106.45;;;12.80;99.90;;;;;;4929859;29;20047;-84
2023/08/29 00:26:16;;;;;;;123.85;117.60;;;12.80;99.90;;;;;;4909523;29;20162;-85
2023/08/29 00:28:42;;;;;;;366.63;346.30;;;13.20;99.90;;;;;;4888075;29;20139;-85
2023/08/29 00:31:08;;;;;;;453.17;425.92;;;12.80;99.90;;;;;;4931381;29;20062;-85
2023/08/29 00:33:34;;;;;;;469.90;439.15;;;12.70;99.90;;;;;;4909462;29;20134;-85
2023/08/29 00:35:59;;;;;;;223.55;209.57;;;12.80;99.90;;;;;;4920156;29;20036;-85
2023/08/29 00:38:25;;;;;;;415.17;391.15;;;12.70;99.90;;;;;;4904915;29;20087;-85
2023/08/29 00:40:51;;;;;;;184.05;174.85;;;12.70;99.90;;;;;;4937209;29;20377;-86
2023/08/29 00:43:16;;;;;;;539.85;483.33;;;12.70;99.90;;;;;;4891110;29;20049;-85
2023/08/29 00:45:43;;;;;;;533.55;477.70;;;12.80;99.90;;;;;;4899072;29;20438;-85
2023/08/29 00:48:09;;;;;;;379.10;308.33;;;12.70;99.90;;;;;;4908617;29;20044;-86
2023/08/29 00:50:35;;;;;;;332.25;296.50;;;12.60;99.90;;;;;;4885351;29;20063;-85
2023/08/29 00:53:04;;;;;;;386.25;309.30;;;12.60;99.90;;;;;;4917877;29;20044;-86
2023/08/29 00:55:31;;;;;;;423.88;324.05;;;12.60;99.90;;;;;;4896765;29;20040;-86
2023/08/29 00:57:59;;;;;;;354.98;309.13;;;12.60;99.90;;;;;;4910658;29;20059;-86
2023/08/29 01:00:30;;;;;;;430.15;325.77;;;12.50;99.90;;;;;;4900184;29;20088;-86
2023/08/29 01:02:57;;;;;;;433.63;328.52;;;12.60;99.90;;;;;;4893178;29;20492;-86
2023/08/29 01:05:23;;;;;;;302.17;275.27;;;12.50;99.90;;;;;;4901773;29;20052;-86
2023/08/29 01:07:58;;;;;;;489.77;452.30;;;12.50;99.90;;;;;;4884565;29;20568;-85
2023/08/29 01:11:02;;;;;;;672.63;402.20;;;12.40;99.90;;;;;;4916845;29;20494;-86
2023/08/29 01:13:45;;;;;;;942.03;482.27;;;12.40;99.90;;;;;;4902977;29;20047;-86
2023/08/29 01:16:13;;;;;;;980.75;515.08;;;12.40;99.90;;;;;;4907013;29;20128;-86
2023/08/29 01:18:40;;;;;;;888.03;519.47;;;12.30;99.90;;;;;;4900187;29;20103;-86
2023/08/29 01:21:36;;;;;;;654.75;388.60;;;12.30;99.90;;;;;;4916889;29;20405;-85
2023/08/29 01:24:07;;;;;;;754.30;506.45;;;12.50;99.90;;;;;;4899941;29;20091;-86
2023/08/29 01:26:34;;;;;;;700.47;400.80;;;12.30;99.90;;;;;;4900329;29;20505;-87
2023/08/29 01:29:03;;;;;;;727.70;417.52;;;12.20;99.90;;;;;;4918308;29;20123;-85
2023/08/29 01:31:31;;;;;;;826.83;513.65;;;12.20;99.90;;;;;;4901978;29;20052;-85
2023/08/29 01:33:58;;;;;;;620.90;383.20;;;12.40;99.90;;;;;;4935767;29;20123;-86
2023/08/29 01:36:43;;;;;;;660.60;394.20;;;12.20;99.90;;;;;;4902666;29;20141;-86
2023/08/29 01:39:09;;;;;;;682.45;396.15;;;12.30;99.90;;;;;;4916353;29;20060;-85
2023/08/29 01:41:35;;;;;;;820.28;513.67;;;12.10;99.90;;;;;;4894174;29;20462;-86
2023/08/29 01:44:03;;;;;;;834.08;525.65;;;12.10;99.90;;;;;;4900704;29;20052;-85
2023/08/29 01:46:29;;;;;;;852.70;515.67;;;12.10;99.90;;;;;;4897962;29;20052;-86
2023/08/29 01:49:01;;;;;;;866.30;521.30;;;12.00;99.90;;;;;;4885284;29;20044;-85
2023/08/29 01:51:27;;;;;;;805.83;438.77;;;12.00;99.90;;;;;;4916832;29;20044;-85
2023/08/29 01:53:53;;;;;;;854.28;450.77;;;11.90;99.90;;;;;;4917098;29;20083;-85
2023/08/29 01:56:21;;;;;;;963.00;523.92;;;11.90;99.90;;;;;;4911886;29;20047;-85
2023/08/29 01:58:48;;;;;;;970.17;521.72;;;11.90;99.90;;;;;;4892008;29;20062;-86
2023/08/29 02:01:14;;;;;;;949.55;480.75;;;12.20;99.90;;;;;;4895739;29;20129;-86
2023/08/29 02:03:40;;;;;;;1138.22;547.05;;;11.70;99.90;;;;;;4896947;29;20054;-86
2023/08/29 02:06:06;;;;;;;1144.30;523.47;;;11.60;99.90;;;;;;4908310;29;20440;-86
2023/08/29 02:08:32;;;;;;;1168.00;526.53;;;11.50;99.90;;;;;;4900564;29;20044;-86
2023/08/29 02:10:58;;;;;;;1168.90;528.15;;;11.30;99.90;;;;;;4899085;29;20489;-86
2023/08/29 02:13:23;;;;;;;1179.13;531.33;;;11.30;99.90;;;;;;4899539;29;20044;-85
2023/08/29 02:15:49;;;;;;;1175.00;532.42;;;11.20;99.90;;;;;;4899520;29;20060;-85
2023/08/29 02:18:15;;;;;;;1143.55;520.53;;;11.20;99.90;;;;;;4899548;29;20591;-86
2023/08/29 02:20:40;;;;;;;1186.03;533.47;;;11.20;99.90;;;;;;4900023;29;20165;-86
2023/08/29 02:23:06;;;;;;;1179.55;526.65;;;11.20;99.90;;;;;;4915638;29;20044;-85
2023/08/29 02:25:32;;;;;;;1115.72;508.65;;;11.20;99.90;;;;;;4899354;29;20053;-85
2023/08/29 02:27:58;;;;;;;1213.10;538.40;;;11.30;99.90;;;;;;4899478;29;20083;-85
2023/08/29 02:30:24;;;;;;;1243.67;539.17;;;11.30;99.90;;;;;;4916354;29;20474;-85
2023/08/29 02:32:49;;;;;;;1226.53;532.53;;;11.30;99.90;;;;;;4915260;29;20059;-85
2023/08/29 02:35:15;;;;;;;1233.37;537.10;;;11.30;99.90;;;;;;4916270;29;20060;-86
2023/08/29 02:37:41;;;;;;;1237.07;539.57;;;11.30;99.90;;;;;;4933675;29;20039;-85
2023/08/29 02:40:08;;;;;;;1227.47;542.88;;;11.30;99.90;;;;;;4901025;29;20044;-85
2023/08/29 02:42:35;;;;;;;1238.37;532.07;;;11.30;99.90;;;;;;4891768;29;20100;-85
2023/08/29 02:45:01;;;;;;;1246.27;538.87;;;11.30;99.90;;;;;;4893581;29;20044;-86
2023/08/29 02:47:27;;;;;;;1231.37;525.60;;;11.30;99.90;;;;;;4880808;29;20099;-86
2023/08/29 02:49:52;;;;;;;1237.07;532.47;;;11.30;99.90;;;;;;4906023;29;20481;-86
2023/08/29 02:52:20;;;;;;;1260.03;544.73;;;11.30;99.90;;;;;;4907499;29;20467;-85
2023/08/29 02:54:46;;;;;;;1269.10;545.13;;;11.30;99.90;;;;;;4900175;29;20074;-86
2023/08/29 02:57:12;;;;;;;1266.43;550.90;;;11.30;99.90;;;;;;4919283;29;20481;-86
2023/08/29 02:59:38;;;;;;;1255.63;550.00;;;11.80;99.90;;;;;;4902449;29;20048;-86
2023/08/29 03:02:04;;;;;;;1230.23;546.20;;;11.40;99.90;;;;;;4902715;29;20545;-86
2023/08/29 03:04:30;;;;;;;1203.10;531.03;;;11.30;99.90;;;;;;4901696;29;20123;-87
2023/08/29 03:06:58;;;;;;;1220.03;539.77;;;11.30;99.90;;;;;;4919080;29;20048;-87
2023/08/29 03:09:24;;;;;;;1216.20;542.57;;;11.30;99.90;;;;;;4883573;29;20116;-87
2023/08/29 03:11:53;;;;;;;1186.77;509.37;;;11.30;99.90;;;;;;4884954;29;20425;-84
2023/08/29 03:14:18;;;;;;;1207.20;536.00;;;11.30;99.90;;;;;;4882464;29;20040;-86
2023/08/29 03:16:44;;;;;;;1209.47;535.80;;;11.40;99.90;;;;;;4902494;29;20154;-86
2023/08/29 03:19:10;;;;;;;1178.10;507.10;;;11.30;99.90;;;;;;4919748;29;20047;-87
2023/08/29 03:21:36;;;;;;;1168.17;501.20;;;11.80;99.90;;;;;;4899069;29;20049;-87
2023/08/29 03:24:02;;;;;;;1200.57;544.63;;;11.30;99.90;;;;;;4920737;29;20210;-86
2023/08/29 03:26:28;;;;;;;1158.43;497.60;;;11.20;99.90;;;;;;4888685;29;20055;-85
2023/08/29 03:28:54;;;;;;;1152.40;494.67;;;11.30;99.90;;;;;;4918865;29;20123;-87
2023/08/29 03:31:20;;;;;;;1152.20;499.53;;;11.30;99.90;;;;;;4898878;29;20056;-85
2023/08/29 03:33:46;;;;;;;1156.97;489.57;;;11.20;99.90;;;;;;4883325;29;20535;-86
2023/08/29 03:36:12;;;;;;;1168.17;525.50;;;11.20;99.90;;;;;;4908050;29;20561;-86
2023/08/29 03:38:39;;;;;;;1173.70;528.57;;;11.20;99.90;;;;;;4901846;29;20047;-86
2023/08/29 03:41:05;;;;;;;1174.73;532.83;;;11.20;99.90;;;;;;4900761;29;20052;-86
2023/08/29 03:43:33;;;;;;;1172.00;535.87;;;11.60;99.90;;;;;;4899898;29;20127;-86
2023/08/29 03:46:02;;;;;;;1164.53;528.87;;;11.20;99.90;;;;;;4884457;29;20052;-86
2023/08/29 03:48:28;;;;;;;1142.80;492.63;;;11.30;99.90;;;;;;4893317;29;20509;-85
2023/08/29 03:50:55;;;;;;;1168.07;536.13;;;11.20;99.90;;;;;;4918567;29;20497;-86
2023/08/29 03:53:22;;;;;;;1164.70;531.97;;;11.20;99.90;;;;;;4918741;29;20047;-87
2023/08/29 03:55:48;;;;;;;1165.63;531.00;;;11.20;99.90;;;;;;4889372;29;20056;-87
2023/08/29 03:58:14;;;;;;;1136.63;484.40;;;11.20;99.90;;;;;;4912942;29;20047;-87
2023/08/29 04:00:44;;;;;;;1136.90;484.87;;;11.30;99.90;;;;;;4922388;29;20385;-85
2023/08/29 04:03:10;;;;;;;1137.73;489.80;;;11.30;99.90;;;;;;4894413;29;20104;-84
2023/08/29 04:05:36;;;;;;;1147.47;528.93;;;11.30;99.90;;;;;;4882574;29;20124;-86
2023/08/29 04:08:06;;;;;;;1140.17;533.07;;;11.30;99.90;;;;;;4874554;29;20044;-87
2023/08/29 04:14:59;;;;;;;1113.27;475.40;;;11.20;99.90;;;;;;4919425;29;20042;-91
2023/08/29 04:17:35;;;;;;;1154.60;527.53;;;11.50;99.90;;;;;;4886799;29;20134;-91
2023/08/29 04:20:18;;;;;;;1122.80;476.47;;;11.50;99.90;;;;;;4902235;29;20051;-91
2023/08/29 04:22:57;;;;;;;;;;;;;;;;;;;;;
2023/08/29 04:25:29;;;;;;;1121.10;478.33;;;11.20;99.90;;;;;;4900997;29;20052;-91
2023/08/29 04:28:08;;;;;;;1121.80;481.57;;;11.20;99.90;;;;;;4929542;29;20068;-90
2023/08/29 04:30:35;;;;;;;1130.77;484.40;;;11.20;99.90;;;;;;4903343;29;20088;-91
2023/08/29 04:33:12;;;;;;;1148.37;525.90;;;11.20;99.90;;;;;;4902117;29;20564;-91
2023/08/29 04:35:43;;;;;;;1149.53;523.33;;;11.20;99.90;;;;;;4902363;29;20115;-91
2023/08/29 04:38:12;;;;;;;1153.80;530.97;;;11.20;99.90;;;;;;4902220;29;20082;-91
2023/08/29 04:40:38;;;;;;;1150.07;499.80;;;11.20;99.90;;;;;;4917847;29;20080;-92
2023/08/29 04:43:08;;;;;;;1138.93;488.03;;;11.20;99.90;;;;;;4902003;29;20461;-91
2023/08/29 04:45:36;;;;;;;1150.77;527.47;;;11.20;99.90;;;;;;4890374;29;20078;-91
2023/08/29 04:48:05;;;;;;;1164.40;541.10;;;11.20;99.90;;;;;;4924465;29;20099;-92
2023/08/29 04:50:30;;;;;;;1136.57;484.83;;;11.20;99.90;;;;;;4893152;29;20040;-91
2023/08/29 04:52:56;;;;;;;1155.17;534.50;;;11.10;99.90;;;;;;4894446;29;20051;-91
2023/08/29 04:55:25;;;;;;;1157.00;533.67;;;11.10;99.90;;;;;;4930644;29;20044;-90
2023/08/29 04:57:56;;;;;;;1116.30;484.53;;;11.00;99.90;;;;;;4911705;29;20048;-88
2023/08/29 05:00:22;;;;;;;1106.03;471.53;;;11.00;99.90;;;;;;4892291;29;20049;-91
2023/08/29 05:02:51;;;;;;;1139.47;527.97;;;11.00;99.90;;;;;;4885631;29;20052;-91
2023/08/29 05:05:16;;;;;;;1144.57;533.23;;;10.90;99.90;;;;;;4900973;29;20147;-91
2023/08/29 05:07:42;;;;;;;1145.17;526.27;;;10.90;99.90;;;;;;4901328;29;20090;-92
2023/08/29 05:10:08;;;;;;;1148.80;528.87;;;10.80;99.90;;;;;;4901641;29;20044;-91
2023/08/29 05:12:37;;;;;;;1121.13;477.17;;;10.70;99.90;;;;;;4884720;29;20382;-91
2023/08/29 05:15:09;;;;;;;1132.53;489.37;;;10.70;99.90;;;;;;4892377;29;20078;-91
2023/08/29 05:17:35;;;;;;;1131.70;486.07;;;10.60;99.90;;;;;;4921077;29;20111;-89
2023/08/29 05:20:09;;;;;;;1132.10;477.80;;;10.50;99.90;;;;;;4921293;29;20453;-91
2023/08/29 05:22:41;;;;;;;1152.97;530.10;;;10.50;99.90;;;;;;4908712;29;20417;-92
2023/08/29 05:25:13;;;;;;;1156.37;530.63;;;10.50;99.90;;;;;;4883404;29;20051;-92
2023/08/29 05:27:42;;;;;;;1134.63;486.53;;;10.50;99.90;;;;;;4886322;29;20056;-91
2023/08/29 05:30:10;;;;;;;0.30;0.30;;;10.60;99.90;;;;;;4887564;29;20402;-91
2023/08/29 05:32:40;;;;;;;157.00;140.95;;;10.60;99.90;;;;;;4883741;29;20065;-89
2023/08/29 05:35:09;;;;;;;629.78;466.80;;;10.60;99.90;;;;;;4885868;29;20520;-89
2023/08/29 05:37:38;;;;;;;91.45;86.68;;;10.60;99.90;;;;;;4919119;29;20064;-89
2023/08/29 05:40:10;;;;;;;0.98;0.32;;;10.60;99.90;;;;;;4919489;29;20070;-88
2023/08/29 05:42:38;;;;;;;0.35;0.30;;;10.60;99.90;;;;;;4897876;29;20048;-91
2023/08/29 05:45:07;;;;;;;0.28;0.20;;;10.60;99.90;;;;;;4898148;29;20040;-90
2023/08/29 05:47:33;;;;;;;0.38;0.15;;;10.70;99.90;;;;;;4898011;29;20084;-90
2023/08/29 05:49:59;;;;;;;0.30;0.30;;;10.70;99.90;;;;;;4882880;29;20045;-90
2023/08/29 05:52:25;;;;;;;0.20;0.20;;;10.80;99.90;;;;;;4882626;29;20040;-88
2023/08/29 05:54:51;;;;;;;0.20;0.20;;;10.80;99.90;;;;;;4901445;29;20044;-86
2023/08/29 05:57:17;;;;;;;0.20;0.20;;;10.90;99.90;;;;;;4884734;29;20052;-86
2023/08/29 05:59:42;;;;;;;0.43;0.20;;;10.90;99.90;;;;;;4882121;29;20517;-85
2023/08/29 06:02:08;;;;;;;141.98;129.45;;;11.00;99.90;;;;;;4902419;29;20128;-90
2023/08/29 06:04:54;;;;;;;44.33;42.05;;;11.10;99.90;;;;;;4899507;29;20067;-88
2023/08/29 06:07:39;;;;;;;;;;;11.20;99.90;;;;;;4903974;29;20062;-89
2023/08/29 06:10:10;;;;;;;15.40;13.10;;;11.30;99.90;;;;;;4886874;29;20288;-88
2023/08/29 06:19:21;;;;;;;91.90;86.25;;;12.00;99.90;;;;;;3255938;26;20104;-92
2023/08/29 06:22:35;;;;;;;165.88;155.70;;;12.50;99.90;;;;;;4898548;29;20044;-88
2023/08/29 06:51:05;;;;;;;311.23;284.48;;;14.00;99.90;;;;;;4868797;29;20064;-89
2023/08/29 06:54:32;;;;;;;;;;;;;;;;;;;;;
2023/08/29 06:57:26;;;;;;;485.90;454.35;;;14.50;99.90;;;;;;4866738;29;20049;-91
2023/08/29 07:00:04;;;;;;;184.82;175.15;;;14.70;99.90;;;;;;4864184;29;20049;-91
2023/08/29 07:02:33;;;;;;;176.77;167.57;;;15.00;99.90;;;;;;4845938;29;20106;-88
2023/08/29 07:08:50;;;;;;;;;;;;;;;;;;;;;
2023/08/29 07:32:56;;;;;;;642.45;592.50;;;16.70;99.90;;;;;;5355573;23;20056;-88
2023/08/29 07:48:39;;;;;;;;;;;;;;;;;;;;;
2023/08/29 07:51:21;;;;;;;299.65;282.88;;;17.80;99.90;;;;;;4882980;29;20088;-87
2023/08/29 07:54:17;;;;;;;569.17;533.00;;;17.70;99.90;;;;;;4867210;29;20125;-86
2023/08/29 08:00:54;;;;;;;618.28;577.65;;;18.00;99.90;;;;;;4902686;29;20051;-87
2023/08/29 08:06:41;;;;;;;518.70;486.00;;;18.20;99.90;;;;;;4855477;29;20067;-90
2023/08/29 08:09:36;;;;;;;;;;;;;;;;;;;;;
2023/08/29 08:16:01;;;;;;;299.25;284.23;;;18.60;99.90;;;;;;4869651;29;20117;-86
2023/08/29 08:18:27;;;;;;;289.63;274.75;;;18.50;99.90;;;;;;4860790;29;20136;-85
2023/08/29 08:20:53;;;;;;;506.90;474.85;;;18.50;99.90;;;;;;4875437;29;20047;-86
2023/08/29 08:23:19;;;;;;;132.25;124.75;;;18.60;99.90;;;;;;4859890;29;20087;-85
2023/08/29 08:25:44;;;;;;;96.18;90.78;;;18.70;99.90;;;;;;4860388;29;20053;-86
2023/08/29 08:28:13;;;;;;;157.70;149.02;;;18.70;99.90;;;;;;4867605;29;20426;-86
2023/08/29 08:30:39;;;;;;;617.58;577.30;;;18.80;99.90;;;;;;4859926;29;20518;-87
2023/08/29 08:33:10;;;;;;;754.42;698.53;;;18.90;99.90;;;;;;4875334;29;20053;-86
2023/08/29 08:35:35;;;;;;;809.10;739.00;;;19.10;99.90;;;;;;4862108;29;20655;-85
2023/08/29 08:38:02;;;;;;;548.80;512.20;;;19.20;99.90;;;;;;4859707;29;20065;-85
2023/08/29 08:40:28;;;;;;;446.77;416.42;;;19.50;99.90;;;;;;4844449;29;20049;-86
2023/08/29 08:42:54;;;;;;;185.18;174.88;;;19.50;99.90;;;;;;4866825;29;20191;-86
2023/08/29 08:45:23;;;;;;;175.68;165.73;;;19.60;99.90;;;;;;4895221;29;20142;-83
2023/08/29 08:47:49;;;;;;;271.17;256.92;;;19.70;99.90;;;;;;4913443;29;20247;-86
2023/08/29 08:50:15;;;;;;;487.73;449.30;;;19.90;99.90;;;;;;4885469;29;20095;-86
2023/08/29 08:52:43;;;;;;;968.90;586.83;;;20.10;99.90;;;;;;4885258;29;20059;-86
2023/08/29 08:55:12;;;;;;;978.65;800.50;;;20.20;99.90;;;;;;4900267;29;20051;-87
2023/08/29 08:57:46;;;;;;;818.25;561.30;;;20.30;99.90;;;;;;4916598;29;20044;-88
2023/08/29 09:00:18;;;;;;;1055.80;809.65;;;20.40;99.90;;;;;;4900734;29;20044;-87
2023/08/29 09:03:03;;;;;;;1192.30;963.93;;;20.30;99.90;;;;;;4903384;29;20265;-92
2023/08/29 09:05:41;;;;;;;945.45;583.95;;;20.40;99.90;;;;;;4897010;29;20081;-89
2023/08/29 09:08:25;;;;;;;897.08;799.50;;;20.50;99.90;;;;;;4929738;29;20043;-88
2023/08/29 09:18:13;;;;;;;712.33;558.05;;;20.80;99.90;;;;;;4916961;29;20043;-84
2023/08/29 09:20:43;;;;;;;916.95;814.65;;;20.90;99.90;;;;;;4933506;29;20485;-86
2023/08/29 09:23:28;;;;;;;869.65;586.53;;;21.00;99.90;;;;;;4934210;29;20043;-91
2023/08/29 09:25:59;;;;;;;802.90;563.95;;;21.00;99.90;;;;;;4903251;29;20040;-84
2023/08/29 09:28:31;;;;;;;858.05;585.13;;;21.10;99.90;;;;;;4885252;29;20051;-86
2023/08/29 09:31:15;;;;;;;697.53;557.33;;;21.20;99.90;;;;;;4916855;29;20127;-83
2023/08/29 09:33:41;;;;;;;906.05;814.67;;;21.50;99.90;;;;;;4885613;29;20058;-85
2023/08/29 09:36:18;;;;;;;870.22;582.65;;;21.60;99.90;;;;;;4901221;29;20048;-90
2023/08/29 09:39:11;;;;;;;795.58;576.70;;;21.60;99.90;;;;;;4916963;29;20540;-89
2023/08/29 09:42:18;;;;;;;1115.15;836.75;;;21.70;99.90;;;;;;4899887;29;20048;-88
2023/08/29 09:45:00;;;;;;;1162.95;854.95;;;21.70;99.90;;;;;;4900007;29;20044;-90
2023/08/29 09:48:38;;;;;;;1047.03;836.55;;;21.70;99.90;;;;;;4901066;29;20068;-89
2023/08/29 09:52:25;;;;;;;785.28;582.42;;;21.80;99.90;;;;;;4847082;29;20065;-88
2023/08/29 09:58:58;;;;;;;604.08;543.50;;;21.90;99.90;;;;;;4769848;30;20331;-89
2023/08/29 10:02:01;;;;;;;919.25;827.05;;;22.00;99.90;;;;;;4706606;30;20084;-89
2023/08/29 10:04:34;;;;;;;744.63;600.33;;;22.20;99.90;;;;;;4703151;30;20060;-89
2023/08/29 10:07:49;;;;;;;926.83;835.08;;;22.30;99.90;;;;;;4689959;29;20077;-87
2023/08/29 10:10:34;;;;;;;704.95;604.28;;;22.50;99.90;;;;;;4718306;30;20075;-90
2023/08/29 10:13:06;;;;;;;936.17;842.40;;;22.50;99.90;;;;;;4702879;30;20061;-89
2023/08/29 10:15:37;;;;;;;921.53;840.50;;;22.40;99.90;;;;;;4703723;30;20100;-90
2023/08/29 10:18:13;;;;;;;809.33;622.75;;;22.50;99.90;;;;;;4689030;30;20057;-88
2023/08/29 10:21:00;;;;;;;661.10;594.60;;;22.60;99.90;;;;;;4718796;30;20421;-90
2023/08/29 10:23:54;;;;;;;952.88;855.05;;;22.50;99.90;;;;;;4742155;30;20139;-89
2023/08/29 10:27:17;;;;;;;803.42;618.95;;;22.60;99.90;;;;;;4815800;29;20073;-90
2023/08/29 10:29:46;;;;;;;972.03;864.83;;;22.60;99.90;;;;;;4860660;23;20053;-86
2023/08/29 10:32:24;;;;;;;720.28;627.90;;;22.60;99.90;;;;;;4918439;29;20059;-88
2023/08/29 10:34:50;;;;;;;820.72;645.90;;;22.60;99.90;;;;;;4920930;29;20139;-86
2023/08/29 10:37:38;;;;;;;940.72;841.42;;;22.50;99.90;;;;;;4903101;29;20051;-88
2023/08/29 10:40:11;;;;;;;670.30;600.17;;;22.50;99.90;;;;;;4881542;29;20048;-88
2023/08/29 10:43:03;;;;;;;947.53;856.97;;;22.60;99.90;;;;;;4885084;29;20180;-89
2023/08/29 10:45:59;;;;;;;665.72;598.25;;;22.60;99.90;;;;;;4878835;29;20176;-85
2023/08/29 10:48:43;;;;;;;648.78;586.78;;;22.80;99.90;;;;;;4872385;29;20492;-87
2023/08/29 10:51:17;;;;;;;643.85;587.78;;;22.90;99.90;;;;;;4901853;29;20048;-89
2023/08/29 10:54:05;;;;;;;906.22;833.40;;;22.90;99.90;;;;;;4912385;29;20332;-88
2023/08/29 10:56:45;;;;;;;626.33;574.88;;;23.00;99.90;;;;;;4883960;29;20049;-87
2023/08/29 10:59:32;;;;;;;670.88;605.55;;;23.10;99.90;;;;;;4884397;29;20052;-90
2023/08/29 11:02:27;;;;;;;637.55;580.70;;;23.20;99.90;;;;;;4900863;29;20048;-88
2023/08/29 11:05:09;;;;;;;913.72;654.53;;;23.20;99.90;;;;;;4884645;29;20052;-87
2023/08/29 11:07:38;;;;;;;1385.32;895.90;;;23.20;99.90;;;;;;4871694;29;20533;-89
2023/08/29 11:10:23;;;;;;;1288.10;835.75;;;23.20;99.90;;;;;;4882968;29;20108;-84
2023/08/29 11:13:09;;;;;;;967.40;863.07;;;23.20;99.90;;;;;;4868146;29;20084;-90
2023/08/29 11:16:04;;;;;;;972.88;869.13;;;23.30;99.90;;;;;;4898925;29;20135;-87
2023/08/29 11:18:34;;;;;;;938.22;844.00;;;23.10;99.90;;;;;;4886200;29;20560;-88
2023/08/29 11:21:10;;;;;;;1068.57;847.78;;;23.10;99.90;;;;;;4902029;29;20052;-86
2023/08/29 11:23:41;;;;;;;1301.13;727.05;;;23.20;99.90;;;;;;4884971;29;20116;-85
2023/08/29 11:26:11;;;;;;;1172.65;640.47;;;23.30;99.90;;;;;;4867889;29;20051;-86
2023/08/29 11:28:42;;;;;;;1186.15;721.65;;;23.20;99.90;;;;;;4905795;29;20493;-87
2023/08/29 11:31:08;;;;;;;1203.95;831.95;;;23.10;99.90;;;;;;4901607;29;20067;-84
2023/08/29 11:33:36;;;;;;;1202.57;683.55;;;23.20;99.90;;;;;;4901873;29;20052;-88
2023/08/29 11:36:04;;;;;;;1299.18;680.72;;;23.30;99.90;;;;;;4875800;29;20052;-89
2023/08/29 11:38:31;;;;;;;910.08;640.22;;;23.40;99.90;;;;;;4900541;29;20059;-84
2023/08/29 11:40:59;;;;;;;1159.95;870.33;;;23.40;99.90;;;;;;4867533;29;20155;-86
2023/08/29 11:43:26;;;;;;;1163.07;878.50;;;23.40;99.90;;;;;;4899752;29;20048;-84
2023/08/29 11:45:53;;;;;;;1013.92;657.83;;;23.30;99.50;;;;;;4899936;29;20040;-85
2023/08/29 11:48:23;;;;;;;999.53;651.08;;;23.30;99.90;;;;;;4883172;29;20053;-85
2023/08/29 11:50:52;;;;;;;1035.13;662.10;;;23.30;99.90;;;;;;4902403;29;20052;-86
2023/08/29 11:53:22;;;;;;;1169.80;873.67;;;23.40;99.90;;;;;;4900833;29;20063;-86
2023/08/29 11:55:48;;;;;;;1070.78;669.67;;;23.30;99.90;;;;;;4882933;29;20076;-85
2023/08/29 11:58:14;;;;;;;1205.75;863.17;;;23.40;99.90;;;;;;4867190;29;20055;-85
2023/08/29 12:00:40;;;;;;;1022.95;658.92;;;23.50;98.30;;;;;;4898125;29;20075;-85
2023/08/29 12:03:06;;;;;;;1053.40;663.95;;;23.40;99.90;;;;;;4914410;29;20378;-86
2023/08/29 12:05:32;;;;;;;1051.03;670.70;;;23.30;99.90;;;;;;4885529;29;20074;-86
2023/08/29 12:07:58;;;;;;;1279.50;872.70;;;23.30;99.90;;;;;;4900733;29;20068;-84
2023/08/29 12:10:26;;;;;;;1008.05;651.50;;;23.20;99.90;;;;;;4900849;29;20143;-85
2023/08/29 12:12:51;;;;;;;1004.22;659.28;;;23.20;99.90;;;;;;4899558;29;20087;-84
2023/08/29 12:15:17;;;;;;;1186.50;859.45;;;23.10;99.90;;;;;;4895146;29;20083;-87
2023/08/29 12:17:48;;;;;;;1195.97;874.35;;;23.20;99.90;;;;;;4901434;29;20048;-84
2023/08/29 12:20:15;;;;;;;1225.22;704.47;;;23.30;99.90;;;;;;4900672;29;20048;-84
2023/08/29 12:22:46;;;;;;;1362.97;896.65;;;23.30;99.90;;;;;;4890275;29;20060;-86
2023/08/29 12:25:12;;;;;;;1191.50;690.05;;;23.40;99.40;;;;;;4901238;29;20374;-84
2023/08/29 12:27:39;;;;;;;1336.40;893.05;;;23.10;99.90;;;;;;4885580;29;20055;-84
2023/08/29 12:30:06;;;;;;;1240.68;693.60;;;23.10;99.90;;;;;;4900875;29;20063;-83
2023/08/29 12:32:32;;;;;;;1333.47;876.25;;;23.00;99.90;;;;;;4901113;29;20103;-84
2023/08/29 12:34:58;;;;;;;1312.10;863.08;;;23.20;99.90;;;;;;4871925;29;20462;-84
2023/08/29 12:38:26;;;;;;;1307.57;866.83;;;23.10;99.90;;;;;;4882364;29;20060;-89
2023/08/29 12:41:22;;;;;;;;;;;;;;;;;;;;;
2023/08/29 12:57:46;;;;;;;1306.72;885.45;;;23.70;99.90;;;;;;5328163;23;20075;-89
2023/08/29 13:00:53;;;;;;;1277.85;865.85;;;23.90;99.90;;;;;;4887703;29;20059;-90
2023/08/29 13:05:59;;;;;;;1053.40;662.67;;;23.70;99.90;;;;;;1364576;27;20271;-88
2023/08/29 13:15:06;;;;;;;1124.03;676.30;;;23.90;99.90;;;;;;5624756;23;20417;-94
2023/08/29 14:29:24;;;;;;;1245.07;883.78;;;23.90;99.90;;;;;;4792303;27;20439;-90
2023/08/29 14:48:58;;;;;;;;;;;;;;;;;;;;;
2023/08/29 14:51:40;;;;;;;1270.28;884.90;;;24.60;98.80;;;;;;4696201;30;20173;-87
2023/08/29 14:54:06;;;;;;;1281.55;892.35;;;24.70;97.60;;;;;;4720845;30;20054;-85
2023/08/29 14:56:53;;;;;;;1280.35;891.30;;;24.80;98.50;;;;;;4686193;30;20439;-86
2023/08/29 14:59:18;;;;;;;1096.18;679.33;;;24.90;97.00;;;;;;4715377;30;20061;-83
2023/08/29 15:01:45;;;;;;;1125.85;692.60;;;24.70;98.00;;;;;;4715958;30;20072;-85
2023/08/29 15:04:12;;;;;;;1258.28;887.20;;;24.60;98.00;;;;;;4700275;30;20099;-85
2023/08/29 15:06:38;;;;;;;1268.13;897.45;;;24.50;98.40;;;;;;4699728;30;20061;-84
2023/08/29 15:09:04;;;;;;;1309.50;888.22;;;24.40;98.00;;;;;;4706724;30;20072;-86
2023/08/29 15:11:30;;;;;;;1302.80;890.35;;;24.30;97.40;;;;;;4686153;30;20442;-88
2023/08/29 15:13:58;;;;;;;1191.65;699.38;;;24.00;98.50;;;;;;4711632;30;20503;-86
2023/08/29 15:16:24;;;;;;;1388.40;901.88;;;23.80;99.20;;;;;;4741312;30;20376;-88
2023/08/29 15:18:57;;;;;;;1396.50;899.58;;;23.70;99.10;;;;;;4732700;30;20068;-87
2023/08/29 15:21:23;;;;;;;1410.82;685.75;;;23.40;99.60;;;;;;4838933;24;20514;-83
2023/08/29 15:23:49;;;;;;;1384.45;889.58;;;23.30;99.50;;;;;;4881250;29;20053;-87
2023/08/29 15:26:15;;;;;;;1377.90;885.28;;;23.20;99.90;;;;;;4881508;29;20045;-87
2023/08/29 15:28:40;;;;;;;1375.18;883.65;;;23.10;99.90;;;;;;4850266;29;20059;-87
2023/08/29 15:31:06;;;;;;;1312.53;699.67;;;23.10;99.90;;;;;;4881981;29;20045;-84
2023/08/29 15:33:34;;;;;;;1325.32;704.92;;;23.00;99.90;;;;;;4880519;29;20044;-86
2023/08/29 15:35:59;;;;;;;1339.85;698.25;;;22.90;99.90;;;;;;4881468;29;20092;-82
2023/08/29 15:38:25;;;;;;;1385.63;870.20;;;22.80;99.90;;;;;;4848786;29;20080;-83
2023/08/29 15:41:11;;;;;;;1367.88;858.22;;;22.70;99.90;;;;;;4865011;29;20466;-92
2023/08/29 15:43:39;;;;;;;1429.57;687.53;;;22.60;99.90;;;;;;4848591;29;20116;-87
2023/08/29 15:46:08;;;;;;;1434.88;670.75;;;22.50;99.90;;;;;;4849185;29;20414;-88
2023/08/29 15:48:34;;;;;;;1391.40;857.10;;;22.40;99.90;;;;;;4863961;29;20060;-81
2023/08/29 15:51:00;;;;;;;1387.35;853.83;;;22.30;99.90;;;;;;4880997;29;20446;-85
2023/08/29 15:53:25;;;;;;;1413.15;863.28;;;22.20;99.90;;;;;;4861875;29;20045;-86
2023/08/29 15:56:00;;;;;;;1410.97;862.78;;;22.10;99.90;;;;;;4863138;29;20099;-87
2023/08/29 15:58:26;;;;;;;1400.30;842.83;;;22.10;99.90;;;;;;4878304;29;20045;-86
2023/08/29 16:00:52;;;;;;;1405.70;817.05;;;22.00;99.90;;;;;;4863810;29;20041;-85
2023/08/29 16:03:17;;;;;;;1394.43;820.70;;;21.90;99.90;;;;;;4863137;29;20562;-84
2023/08/29 16:05:43;;;;;;;1438.65;673.17;;;21.80;99.90;;;;;;4880098;29;20506;-84
2023/08/29 16:08:09;;;;;;;1387.72;834.15;;;21.70;99.90;;;;;;4880373;29;20068;-85